createdAt,value
2022-09-23T00:01:27.844Z,98691.78
2022-09-23T00:03:32.035Z,98681.88
2022-09-23T00:05:35.187Z,98679.50
2022-09-23T00:07:38.709Z,98672.00
2022-09-23T00:09:41.203Z,98654.19
2022-09-23T00:11:43.940Z,98670.03
2022-09-23T00:13:49.058Z,98653.91
2022-09-23T00:15:52.170Z,98645.25
2022-09-23T00:17:54.951Z,98646.47
2022-09-23T00:19:57.479Z,98646.88
2022-09-23T00:22:00.001Z,98646.88
2022-09-23T00:24:02.802Z,98650.91
2022-09-23T00:26:06.788Z,98648.50
2022-09-23T00:28:09.403Z,98655.56
2022-09-23T00:30:12.222Z,98658.31
2022-09-23T00:32:14.994Z,98663.41
2022-09-23T00:34:17.560Z,98658.63
2022-09-23T00:36:20.391Z,98659.41
2022-09-23T00:38:23.160Z,98657.81
2022-09-23T00:40:26.270Z,98658.63
2022-09-23T00:42:28.849Z,98641.31
2022-09-23T00:44:43.408Z,98642.97
2022-09-23T00:46:46.033Z,98639.03
2022-09-23T00:48:55.504Z,98642.59
2022-09-23T00:50:58.132Z,98651.69
2022-09-23T00:53:02.298Z,98654.94
2022-09-23T00:55:13.390Z,98648.63
2022-09-23T00:57:17.935Z,98666.06
2022-09-23T00:59:21.880Z,98662.47
2022-09-23T01:01:25.244Z,98655.38
2022-09-23T01:03:28.314Z,98670.72
2022-09-23T01:05:32.272Z,98671.50
2022-09-23T01:07:35.071Z,98654.13
2022-09-23T01:09:37.726Z,98666.78
2022-09-23T01:11:46.157Z,98659.72
2022-09-23T01:14:01.308Z,98682.25
2022-09-23T01:16:16.914Z,98681.09
2022-09-23T01:18:34.673Z,98686.25
2022-09-23T01:21:01.733Z,98660.16
2022-09-23T01:23:36.352Z,98660.53
2022-09-23T01:26:16.233Z,98669.66
2022-09-23T01:28:18.745Z,98663.34
2022-09-23T01:30:47.783Z,98677.28
2022-09-23T01:33:19.361Z,98689.19
2022-09-23T01:35:31.253Z,98688.44
2022-09-23T01:37:36.680Z,98678.63
2022-09-23T01:39:55.562Z,98703.50
2022-09-23T01:42:22.412Z,98692.13
2022-09-23T01:44:35.060Z,98677.94
2022-09-23T01:46:55.765Z,98666.88
2022-09-23T01:49:07.575Z,98663.31
2022-09-23T01:51:20.874Z,98667.25
2022-09-23T01:53:44.904Z,98667.56
2022-09-23T01:55:57.428Z,98675.09
2022-09-23T01:58:14.477Z,98698.00
2022-09-23T02:00:19.644Z,98703.06
2022-09-23T02:02:42.182Z,98716.88
2022-09-23T02:04:58.582Z,98690.69
2022-09-23T02:07:15.317Z,98703.03
2022-09-23T02:09:25.091Z,98716.41
2022-09-23T02:11:28.642Z,98715.16
2022-09-23T02:13:50.117Z,98709.63
2022-09-23T02:16:01.210Z,98715.59
2022-09-23T02:18:10.187Z,98719.16
2022-09-23T02:20:20.693Z,98681.97
2022-09-23T02:22:30.068Z,98683.97
2022-09-23T02:24:36.280Z,98704.19
2022-09-23T02:26:52.838Z,98682.53
2022-09-23T02:29:31.455Z,98697.19
2022-09-23T02:31:49.157Z,98702.00
2022-09-23T02:34:02.699Z,98675.38
2022-09-23T02:36:38.658Z,98673.66
2022-09-23T02:38:53.127Z,98690.28
2022-09-23T02:41:15.257Z,98704.50
2022-09-23T02:43:35.585Z,98707.66
2022-09-23T02:45:39.248Z,98708.41
2022-09-23T02:47:44.241Z,98712.78
2022-09-23T02:49:47.245Z,98686.38
2022-09-23T02:51:51.068Z,98671.47
2022-09-23T02:53:56.465Z,98667.16
2022-09-23T02:55:59.079Z,98671.50
2022-09-23T02:58:03.607Z,98711.06
2022-09-23T03:00:06.784Z,98698.13
2022-09-23T03:02:40.140Z,98658.56
2022-09-23T03:05:06.653Z,98586.63
2022-09-23T03:07:14.423Z,98589.00
2022-09-23T03:10:03.542Z,98613.03
2022-09-23T03:12:36.228Z,98608.63
2022-09-23T03:14:49.653Z,98568.66
2022-09-23T03:17:25.394Z,98591.25
2022-09-23T03:19:42.431Z,98610.13
2022-09-23T03:21:56.959Z,98619.56
2022-09-23T03:24:02.944Z,98623.06
2022-09-23T03:26:13.925Z,98614.34
2022-09-23T03:28:18.642Z,98616.31
2022-09-23T03:30:21.900Z,98622.28
2022-09-23T03:32:28.370Z,98613.59
2022-09-23T03:34:34.189Z,98616.34
2022-09-23T03:36:53.977Z,98625.47
2022-09-23T03:39:06.470Z,98623.13
2022-09-23T03:41:16.969Z,98625.16
2022-09-23T03:43:20.015Z,98629.91
2022-09-23T03:45:27.309Z,98623.53
2022-09-23T03:47:31.188Z,98634.69
2022-09-23T03:49:37.447Z,98632.34
2022-09-23T03:51:44.382Z,98624.06
2022-09-23T03:53:48.391Z,98629.63
2022-09-23T03:55:50.977Z,98617.78
2022-09-23T03:57:54.216Z,98609.91
2022-09-23T03:59:56.822Z,98609.25
2022-09-23T04:02:00.416Z,98618.41
2022-09-23T04:04:03.039Z,98606.63
2022-09-23T04:06:06.954Z,98620.50
2022-09-23T04:08:09.553Z,98610.28
2022-09-23T04:10:12.233Z,98619.00
2022-09-23T04:12:16.977Z,98621.88
2022-09-23T04:14:22.414Z,98616.84
2022-09-23T04:16:25.502Z,98616.16
2022-09-23T04:18:28.139Z,98622.09
2022-09-23T04:20:30.731Z,98604.75
2022-09-23T04:22:35.243Z,98602.41
2022-09-23T04:24:37.849Z,98598.97
2022-09-23T04:26:40.957Z,98600.19
2022-09-23T04:28:43.489Z,98586.34
2022-09-23T04:30:46.454Z,98608.47
2022-09-23T04:32:49.058Z,98580.72
2022-09-23T04:34:51.632Z,98602.22
2022-09-23T04:36:54.136Z,98599.50
2022-09-23T04:38:57.196Z,98598.72
2022-09-23T04:40:59.878Z,98605.53
2022-09-23T04:43:02.559Z,98604.00
2022-09-23T04:45:05.791Z,98599.69
2022-09-23T04:47:08.602Z,98611.13
2022-09-23T04:49:11.363Z,98611.50
2022-09-23T04:51:16.228Z,98604.78
2022-09-23T04:53:19.509Z,98613.94
2022-09-23T04:55:24.473Z,98619.91
2022-09-23T04:57:27.126Z,98619.94
2022-09-23T04:59:30.389Z,98615.63
2022-09-23T05:01:34.751Z,98619.19
2022-09-23T05:03:38.117Z,98620.00
2022-09-23T05:05:40.744Z,98632.34
2022-09-23T05:07:44.278Z,98629.97
2022-09-23T05:09:47.016Z,98630.06
2022-09-23T05:11:49.578Z,98621.47
2022-09-23T05:13:54.755Z,98622.75
2022-09-23T05:16:02.892Z,98615.72
2022-09-23T05:18:05.668Z,98608.13
2022-09-23T05:20:08.766Z,98624.00
2022-09-23T05:22:11.398Z,98624.44
2022-09-23T05:24:14.034Z,98618.91
2022-09-23T05:26:16.712Z,98620.81
2022-09-23T05:28:20.231Z,98625.28
2022-09-23T05:30:22.899Z,98625.94
2022-09-23T05:32:26.002Z,98614.84
2022-09-23T05:34:29.003Z,98623.66
2022-09-23T05:36:38.423Z,98631.25
2022-09-23T05:38:42.402Z,98626.78
2022-09-23T05:40:45.049Z,98622.75
2022-09-23T05:42:47.685Z,98627.00
2022-09-23T05:44:50.375Z,98628.63
2022-09-23T05:46:53.154Z,98630.19
2022-09-23T05:49:06.748Z,98626.66
2022-09-23T05:51:13.267Z,98628.69
2022-09-23T05:53:18.196Z,98629.00
2022-09-23T05:55:20.797Z,98637.00
2022-09-23T05:57:23.422Z,98629.59
2022-09-23T05:59:26.125Z,98636.50
2022-09-23T06:01:34.225Z,98640.56
2022-09-23T06:03:37.289Z,98649.81
2022-09-23T06:05:40.130Z,98650.28
2022-09-23T06:07:42.910Z,98651.16
2022-09-23T06:09:45.744Z,98652.03
2022-09-23T06:11:48.402Z,98654.84
2022-09-23T06:13:55.450Z,98653.69
2022-09-23T06:15:58.747Z,98652.50
2022-09-23T06:18:02.173Z,98656.09
2022-09-23T06:20:05.393Z,98659.28
2022-09-23T06:22:09.656Z,98653.75
2022-09-23T06:24:17.205Z,98658.53
2022-09-23T06:26:21.288Z,98661.28
2022-09-23T06:28:24.659Z,98656.88
2022-09-23T06:30:27.885Z,98657.72
2022-09-23T06:32:30.529Z,98671.59
2022-09-23T06:34:43.131Z,98663.66
2022-09-23T06:36:51.961Z,98672.38
2022-09-23T06:38:54.661Z,98661.66
2022-09-23T06:40:58.888Z,98667.19
2022-09-23T06:43:02.535Z,98681.47
2022-09-23T06:45:05.402Z,98671.91
2022-09-23T06:47:08.059Z,98658.88
2022-09-23T06:49:13.671Z,98659.28
2022-09-23T06:51:19.440Z,98650.97
2022-09-23T06:53:23.829Z,98660.97
2022-09-23T06:55:27.988Z,98654.31
2022-09-23T06:57:31.609Z,98651.19
2022-09-23T06:59:34.158Z,98659.19
2022-09-23T07:01:36.885Z,98646.56
2022-09-23T07:03:39.692Z,98651.34
2022-09-23T07:05:42.309Z,98646.25
2022-09-23T07:07:46.571Z,98641.16
2022-09-23T07:09:50.099Z,98640.81
2022-09-23T07:11:52.683Z,98636.13
2022-09-23T07:13:55.328Z,98633.41
2022-09-23T07:15:59.134Z,98632.69
2022-09-23T07:18:01.735Z,98631.09
2022-09-23T07:20:04.950Z,98637.88
2022-09-23T07:22:07.715Z,98634.72
2022-09-23T07:24:10.440Z,98641.13
2022-09-23T07:26:14.738Z,98642.34
2022-09-23T07:28:18.028Z,98643.16
2022-09-23T07:30:25.197Z,98643.97
2022-09-23T07:32:29.978Z,98635.63
2022-09-23T07:34:36.651Z,98640.03
2022-09-23T07:36:41.147Z,98639.63
2022-09-23T07:38:45.783Z,98638.44
2022-09-23T07:40:49.332Z,98641.25
2022-09-23T07:42:52.165Z,98632.91
2022-09-23T07:44:56.976Z,98636.44
2022-09-23T07:47:00.633Z,98629.31
2022-09-23T07:49:03.871Z,98628.50
2022-09-23T07:51:31.901Z,98624.56
2022-09-23T07:53:37.615Z,98620.56
2022-09-23T07:55:40.176Z,98619.00
2022-09-23T07:57:42.754Z,98615.03
2022-09-23T07:59:45.334Z,98616.63
2022-09-23T08:01:50.939Z,98614.25
2022-09-23T08:03:53.778Z,98609.88
2022-09-23T08:06:04.687Z,98611.06
2022-09-23T08:08:07.370Z,98607.88
2022-09-23T08:10:10.516Z,98607.06
2022-09-23T08:12:19.019Z,98601.53
2022-09-23T08:14:22.586Z,98594.38
2022-09-23T08:16:25.354Z,98603.53
2022-09-23T08:18:28.692Z,98602.31
2022-09-23T08:20:47.964Z,98602.31
2022-09-23T08:22:51.430Z,98606.69
2022-09-23T08:24:55.943Z,98608.69
2022-09-23T08:26:59.395Z,98617.81
2022-09-23T08:29:02.399Z,98609.06
2022-09-23T08:31:05.557Z,98607.81
2022-09-23T08:33:08.305Z,98609.41
2022-09-23T08:35:11.102Z,98613.34
2022-09-23T08:37:13.787Z,98598.19
2022-09-23T08:39:18.525Z,98581.88
2022-09-23T08:41:58.522Z,98596.53
2022-09-23T08:44:19.548Z,98597.69
2022-09-23T08:46:32.851Z,98592.47
2022-09-23T08:48:42.693Z,98599.97
2022-09-23T08:50:50.513Z,98594.75
2022-09-23T08:53:13.196Z,98586.34
2022-09-23T08:55:16.647Z,98593.09
2022-09-23T08:58:02.241Z,98580.34
2022-09-23T09:00:30.084Z,98578.34
2022-09-23T09:02:36.527Z,98569.09
2022-09-23T09:04:44.633Z,98567.84
2022-09-23T09:07:35.243Z,98575.31
2022-09-23T09:09:40.917Z,98569.34
2022-09-23T09:11:49.181Z,98562.94
2022-09-23T09:14:05.096Z,98558.50
2022-09-23T09:16:11.745Z,98542.53
2022-09-23T09:18:21.104Z,98559.28
2022-09-23T09:20:50.044Z,98546.09
2022-09-23T09:22:58.037Z,98540.81
2022-09-23T09:25:15.261Z,98543.09
2022-09-23T09:27:18.104Z,98533.38
2022-09-23T09:29:35.458Z,98536.63
2022-09-23T09:31:43.817Z,98535.41
2022-09-23T09:34:05.841Z,98533.69
2022-09-23T09:36:09.218Z,98527.44
2022-09-23T09:38:12.862Z,98529.66
2022-09-23T09:40:20.640Z,98528.25
2022-09-23T09:42:46.472Z,98530.94
2022-09-23T09:45:00.055Z,98522.09
2022-09-23T09:47:02.886Z,98520.91
2022-09-23T09:49:40.380Z,98524.66
2022-09-23T09:51:43.468Z,98525.63
2022-09-23T09:53:46.184Z,98516.41
2022-09-23T09:56:05.200Z,98515.59
2022-09-23T09:58:23.689Z,98515.50
2022-09-23T10:00:30.268Z,98515.59
2022-09-23T10:02:37.251Z,98514.19
2022-09-23T10:04:41.352Z,98513.28
2022-09-23T10:06:44.064Z,98500.84
2022-09-23T10:09:07.836Z,98515.13
2022-09-23T10:11:18.567Z,98511.22
2022-09-23T10:13:24.625Z,98510.50
2022-09-23T10:15:31.075Z,98513.72
2022-09-23T10:17:34.863Z,98511.22
2022-09-23T10:19:44.945Z,98504.34
2022-09-23T10:21:53.016Z,98504.41
2022-09-23T10:23:58.787Z,98508.28
2022-09-23T10:26:05.573Z,98499.06
2022-09-23T10:28:42.155Z,98503.78
2022-09-23T10:31:14.696Z,98500.66
2022-09-23T10:33:28.134Z,98503.84
2022-09-23T10:35:33.710Z,98494.25
2022-09-23T10:37:50.321Z,98501.13
2022-09-23T10:40:11.391Z,98502.03
2022-09-23T10:42:43.515Z,98502.44
2022-09-23T10:45:30.633Z,98496.84
2022-09-23T10:47:37.182Z,98486.41
2022-09-23T10:49:53.089Z,98488.38
2022-09-23T10:52:15.224Z,98490.16
2022-09-23T10:54:32.537Z,98486.16
2022-09-23T10:56:40.381Z,98482.13
2022-09-23T10:59:27.425Z,98480.56
2022-09-23T11:01:50.341Z,98475.78
2022-09-23T11:04:27.009Z,98474.31
2022-09-23T11:06:47.431Z,98472.88
2022-09-23T11:09:28.466Z,98467.31
2022-09-23T11:11:58.825Z,98470.59
2022-09-23T11:14:17.282Z,98461.44
2022-09-23T11:16:47.178Z,98461.72
2022-09-23T11:19:22.351Z,98465.78
2022-09-23T11:21:53.620Z,98464.44
2022-09-23T11:24:02.220Z,98447.50
2022-09-23T11:26:36.920Z,98448.16
2022-09-23T11:28:55.235Z,98452.13
2022-09-23T11:31:06.909Z,98448.53
2022-09-23T11:33:28.308Z,98441.03
2022-09-23T11:35:37.123Z,98448.59
2022-09-23T11:38:12.071Z,98455.41
2022-09-23T11:40:30.411Z,98447.44
2022-09-23T11:42:46.152Z,98441.13
2022-09-23T11:45:01.292Z,98438.31
2022-09-23T11:47:09.303Z,98443.56
2022-09-23T11:49:41.186Z,98447.13
2022-09-23T11:52:02.183Z,98436.03
2022-09-23T11:54:23.108Z,98424.09
2022-09-23T11:56:46.011Z,98414.97
2022-09-23T11:59:16.383Z,98416.56
2022-09-23T12:01:45.833Z,98422.94
2022-09-23T12:04:20.520Z,98416.63
2022-09-23T12:06:31.161Z,98420.66
2022-09-23T12:08:39.478Z,98423.44
2022-09-23T12:11:08.778Z,98420.25
2022-09-23T12:13:19.494Z,98419.84
2022-09-23T12:15:46.051Z,98421.44
2022-09-23T12:18:20.823Z,98423.06
2022-09-23T12:20:56.684Z,98419.94
2022-09-23T12:23:25.553Z,98416.66
2022-09-23T12:25:38.055Z,98420.53
2022-09-23T12:27:45.612Z,98427.56
2022-09-23T12:29:53.132Z,98424.75
2022-09-23T12:31:55.945Z,98427.00
2022-09-23T12:34:01.268Z,98428.75
2022-09-23T12:36:08.595Z,98424.78
2022-09-23T12:38:36.676Z,98425.16
2022-09-23T12:40:45.009Z,98422.13
2022-09-23T12:42:48.892Z,98426.31
2022-09-23T12:44:52.695Z,98429.59
2022-09-23T12:47:26.126Z,98432.97
2022-09-23T12:49:28.628Z,98439.63
2022-09-23T12:51:36.295Z,98435.13
2022-09-23T12:53:39.411Z,98437.00
2022-09-23T12:55:47.141Z,98427.81
2022-09-23T12:57:49.754Z,98427.38
2022-09-23T12:59:53.872Z,98428.19
2022-09-23T13:01:57.763Z,98426.59
2022-09-23T13:04:19.343Z,98428.66
2022-09-23T13:06:40.337Z,98421.63
2022-09-23T13:09:02.810Z,98405.09
2022-09-23T13:11:15.225Z,98406.41
2022-09-23T13:13:33.145Z,98399.66
2022-09-23T13:15:37.148Z,98406.81
2022-09-23T13:17:40.645Z,98414.06
2022-09-23T13:19:45.455Z,98406.09
2022-09-23T13:21:49.693Z,98408.53
2022-09-23T13:24:13.659Z,98409.06
2022-09-23T13:26:16.785Z,98401.88
2022-09-23T13:28:34.541Z,98399.16
2022-09-23T13:30:49.378Z,98393.56
2022-09-23T13:33:11.267Z,98393.81
2022-09-23T13:35:13.937Z,98399.28
2022-09-23T13:37:22.885Z,98394.09
2022-09-23T13:39:29.757Z,98393.06
2022-09-23T13:41:32.414Z,98397.44
2022-09-23T13:43:41.658Z,98398.91
2022-09-23T13:45:44.664Z,98398.28
2022-09-23T13:47:48.697Z,98386.69
2022-09-23T13:49:51.678Z,98392.47
2022-09-23T13:51:56.562Z,98392.28
2022-09-23T13:54:01.630Z,98394.09
2022-09-23T13:56:13.459Z,98390.75
2022-09-23T13:58:24.230Z,98382.16
2022-09-23T14:00:27.192Z,98380.66
2022-09-23T14:02:30.486Z,98383.59
2022-09-23T14:04:33.352Z,98380.13
2022-09-23T14:06:41.273Z,98388.59
2022-09-23T14:08:51.395Z,98375.56
2022-09-23T14:10:55.594Z,98381.63
2022-09-23T14:12:59.488Z,98375.41
2022-09-23T14:15:02.184Z,98378.34
2022-09-23T14:17:08.956Z,98370.94
2022-09-23T14:19:19.031Z,98372.69
2022-09-23T14:21:39.803Z,98371.22
2022-09-23T14:23:45.604Z,98373.38
2022-09-23T14:25:50.509Z,98362.31
2022-09-23T14:27:58.569Z,98365.25
2022-09-23T14:30:04.776Z,98372.50
2022-09-23T14:32:18.553Z,98370.25
2022-09-23T14:34:50.231Z,98371.91
2022-09-23T14:37:11.288Z,98366.00
2022-09-23T14:39:16.172Z,98368.09
2022-09-23T14:41:24.943Z,98370.94
2022-09-23T14:43:28.793Z,98370.59
2022-09-23T14:45:37.651Z,98375.41
2022-09-23T14:47:46.527Z,98357.97
2022-09-23T14:50:10.853Z,98369.97
2022-09-23T14:52:13.852Z,98364.06
2022-09-23T14:54:24.588Z,98358.16
2022-09-23T14:56:27.470Z,98364.16
2022-09-23T14:58:30.070Z,98360.97
2022-09-23T15:00:32.902Z,98355.84
2022-09-23T15:03:00.833Z,98361.44
2022-09-23T15:05:15.940Z,98358.63
2022-09-23T15:07:21.099Z,98364.63
2022-09-23T15:09:27.463Z,98357.50
2022-09-23T15:11:30.897Z,98360.69
2022-09-23T15:13:38.969Z,98354.34
2022-09-23T15:15:43.385Z,98354.38
2022-09-23T15:17:46.961Z,98350.84
2022-09-23T15:19:58.568Z,98346.09
2022-09-23T15:22:01.481Z,98358.81
2022-09-23T15:24:04.201Z,98362.41
2022-09-23T15:26:12.414Z,98353.28
2022-09-23T15:28:19.211Z,98358.44
2022-09-23T15:30:22.245Z,98364.41
2022-09-23T15:32:25.033Z,98347.34
2022-09-23T15:34:27.815Z,98358.44
2022-09-23T15:36:30.486Z,98353.31
2022-09-23T15:38:33.230Z,98353.69
2022-09-23T15:40:37.696Z,98356.88
2022-09-23T15:42:40.688Z,98353.31
2022-09-23T15:44:43.298Z,98356.47
2022-09-23T15:46:48.847Z,98359.25
2022-09-23T15:49:01.128Z,98354.09
2022-09-23T15:51:07.118Z,98358.06
2022-09-23T15:53:19.095Z,98355.31
2022-09-23T15:55:23.728Z,98353.69
2022-09-23T15:57:26.354Z,98347.38
2022-09-23T15:59:31.288Z,98351.72
2022-09-23T16:01:37.031Z,98343.00
2022-09-23T16:03:39.871Z,98347.75
2022-09-23T16:05:47.016Z,98352.13
2022-09-23T16:07:52.421Z,98342.63
2022-09-23T16:09:55.230Z,98339.03
2022-09-23T16:11:58.047Z,98337.84
2022-09-23T16:14:01.491Z,98337.06
2022-09-23T16:16:04.221Z,98338.66
2022-09-23T16:18:08.488Z,98333.88
2022-09-23T16:20:12.884Z,98330.69
2022-09-23T16:22:16.228Z,98331.09
2022-09-23T16:24:19.436Z,98330.72
2022-09-23T16:26:26.992Z,98336.25
2022-09-23T16:28:29.585Z,98327.13
2022-09-23T16:30:34.656Z,98330.72
2022-09-23T16:32:37.421Z,98325.97
2022-09-23T16:34:40.055Z,98322.00
2022-09-23T16:36:43.934Z,98318.81
2022-09-23T16:38:47.481Z,98322.81
2022-09-23T16:40:50.224Z,98316.84
2022-09-23T16:42:56.200Z,98320.03
2022-09-23T16:44:58.901Z,98326.34
2022-09-23T16:47:01.510Z,98316.44
2022-09-23T16:49:04.750Z,98315.25
2022-09-23T16:51:08.928Z,98305.72
2022-09-23T16:53:11.647Z,98312.06
2022-09-23T16:55:15.211Z,98310.09
2022-09-23T16:57:17.762Z,98313.66
2022-09-23T16:59:20.329Z,98316.03
2022-09-23T17:01:43.855Z,98312.47
2022-09-23T17:03:47.969Z,98310.88
2022-09-23T17:05:51.182Z,98316.44
2022-09-23T17:07:54.614Z,98320.00
2022-09-23T17:09:58.154Z,98323.56
2022-09-23T17:12:35.357Z,98319.63
2022-09-23T17:14:38.074Z,98321.97
2022-09-23T17:16:40.793Z,98319.97
2022-09-23T17:18:43.576Z,98314.84
2022-09-23T17:21:06.670Z,98313.25
2022-09-23T17:23:09.270Z,98312.84
2022-09-23T17:25:11.872Z,98312.44
2022-09-23T17:27:17.243Z,98308.47
2022-09-23T17:29:19.845Z,98310.88
2022-09-23T17:31:24.466Z,98308.06
2022-09-23T17:33:29.107Z,98310.84
2022-09-23T17:35:31.675Z,98306.50
2022-09-23T17:37:34.282Z,98305.69
2022-09-23T17:39:37.208Z,98307.63
2022-09-23T17:41:39.854Z,98312.34
2022-09-23T17:43:42.558Z,98313.13
2022-09-23T17:45:45.342Z,98311.56
2022-09-23T17:47:55.007Z,98309.53
2022-09-23T17:49:58.282Z,98317.44
2022-09-23T17:52:05.920Z,98305.97
2022-09-23T17:54:08.667Z,98298.44
2022-09-23T17:56:15.405Z,98302.00
2022-09-23T17:58:19.241Z,98306.75
2022-09-23T18:00:21.849Z,98304.38
2022-09-23T18:02:24.519Z,98297.25
2022-09-23T18:04:27.447Z,98311.50
2022-09-23T18:06:31.924Z,98298.03
2022-09-23T18:08:34.880Z,98302.41
2022-09-23T18:10:37.748Z,98291.72
2022-09-23T18:12:40.346Z,98289.34
2022-09-23T18:14:45.425Z,98283.41
2022-09-23T18:16:50.575Z,98288.19
2022-09-23T18:18:54.881Z,98284.22
2022-09-23T18:21:04.679Z,98292.97
2022-09-23T18:23:07.646Z,98289.03
2022-09-23T18:25:35.230Z,98289.44
2022-09-23T18:27:34.941Z,98284.69
2022-09-23T18:29:37.686Z,98283.13
2022-09-23T18:31:41.344Z,98291.03
2022-09-23T18:33:48.485Z,98289.84
2022-09-23T18:35:52.173Z,98281.94
2022-09-23T18:37:54.961Z,98283.91
2022-09-23T18:39:57.568Z,98279.56
2022-09-23T18:42:01.184Z,98285.50
2022-09-23T18:44:04.549Z,98279.16
2022-09-23T18:46:11.812Z,98285.50
2022-09-23T18:48:33.447Z,98278.75
2022-09-23T18:50:43.653Z,98283.91
2022-09-23T18:52:46.310Z,98288.66
2022-09-23T18:54:52.990Z,98276.00
2022-09-23T18:56:59.317Z,98283.13
2022-09-23T18:59:02.003Z,98273.59
2022-09-23T19:01:07.383Z,98286.69
2022-09-23T19:03:10.208Z,98279.53
2022-09-23T19:05:13.005Z,98281.53
2022-09-23T19:07:16.258Z,98271.22
2022-09-23T19:09:19.097Z,98274.41
2022-09-23T19:11:23.976Z,98281.09
2022-09-23T19:13:27.688Z,98281.91
2022-09-23T19:15:30.455Z,98269.63
2022-09-23T19:17:33.154Z,98264.44
2022-09-23T19:19:35.887Z,98266.00
2022-09-23T19:21:38.535Z,98273.13
2022-09-23T19:23:47.695Z,98269.97
2022-09-23T19:25:50.496Z,98269.19
2022-09-23T19:27:54.022Z,98269.97
2022-09-23T19:29:57.993Z,98271.94
2022-09-23T19:32:01.036Z,98271.53
2022-09-23T19:34:10.593Z,98275.91
2022-09-23T19:36:13.371Z,98272.72
2022-09-23T19:38:17.566Z,98261.63
2022-09-23T19:40:21.332Z,98261.63
2022-09-23T19:42:27.324Z,98260.81
2022-09-23T19:44:30.329Z,98262.03
2022-09-23T19:46:38.686Z,98261.63
2022-09-23T19:48:41.531Z,98256.44
2022-09-23T19:50:47.436Z,98265.59
2022-09-23T19:52:51.948Z,98258.84
2022-09-23T19:54:54.969Z,98259.25
2022-09-23T19:56:57.887Z,98255.69
2022-09-23T19:59:03.190Z,98260.84
2022-09-23T20:01:08.751Z,98250.94
2022-09-23T20:03:11.552Z,98250.53
2022-09-23T20:05:18.441Z,98257.25
2022-09-23T20:07:23.322Z,98246.56
2022-09-23T20:09:27.528Z,98254.09
2022-09-23T20:11:30.446Z,98254.50
2022-09-23T20:13:33.989Z,98240.63
2022-09-23T20:15:37.321Z,98246.19
2022-09-23T20:17:42.762Z,98246.56
2022-09-23T20:19:45.340Z,98247.34
2022-09-23T20:22:07.947Z,98246.56
2022-09-23T20:24:12.246Z,98246.56
2022-09-23T20:26:33.147Z,98246.56
2022-09-23T20:28:35.852Z,98251.72
2022-09-23T20:30:39.267Z,98241.00
2022-09-23T20:32:44.777Z,98240.22
2022-09-23T20:34:49.069Z,98249.75
2022-09-23T20:36:51.701Z,98250.16
2022-09-23T20:38:59.591Z,98255.28
2022-09-23T20:41:02.478Z,98260.06
2022-09-23T20:43:05.522Z,98250.94
2022-09-23T20:45:08.551Z,98245.81
2022-09-23T20:47:15.391Z,98245.00
2022-09-23T20:49:18.063Z,98241.09
2022-09-23T20:51:21.262Z,98232.78
2022-09-23T20:53:24.446Z,98233.56
2022-09-23T20:55:27.352Z,98243.06
2022-09-23T20:57:31.579Z,98226.81
2022-09-23T20:59:35.202Z,98230.00
2022-09-23T21:01:38.097Z,98219.69
2022-09-23T21:03:43.557Z,98217.31
2022-09-23T21:05:46.743Z,98218.91
2022-09-23T21:07:49.567Z,98222.47
2022-09-23T21:09:52.270Z,98215.34
2022-09-23T21:11:55.918Z,98210.19
2022-09-23T21:13:59.294Z,98219.69
2022-09-23T21:16:10.704Z,98221.28
2022-09-23T21:18:16.303Z,98219.69
2022-09-23T21:20:20.727Z,98230.41
2022-09-23T21:22:23.417Z,98226.84
2022-09-23T21:24:53.623Z,98226.03
2022-09-23T21:26:50.545Z,98219.69
2022-09-23T21:28:59.705Z,98206.63
2022-09-23T21:31:08.501Z,98208.19
2022-09-23T21:33:11.378Z,98204.22
2022-09-23T21:35:14.050Z,98217.72
2022-09-23T21:37:16.726Z,98209.41
2022-09-23T21:39:19.648Z,98204.25
2022-09-23T21:41:22.349Z,98203.44
2022-09-23T21:43:26.722Z,98194.31
2022-09-23T21:45:29.361Z,98198.28
2022-09-23T21:47:32.551Z,98198.69
2022-09-23T21:49:35.173Z,98183.63
2022-09-23T21:51:41.163Z,98195.91
2022-09-23T21:53:44.938Z,98191.97
2022-09-23T21:55:49.099Z,98186.75
2022-09-23T21:57:51.874Z,98181.59
2022-09-23T21:59:54.502Z,98177.63
2022-09-23T22:01:57.162Z,98169.72
2022-09-23T22:04:08.414Z,98164.59
2022-09-23T22:06:12.415Z,98166.94
2022-09-23T22:08:15.331Z,98163.00
2022-09-23T22:10:17.906Z,98155.06
2022-09-23T22:12:20.427Z,98158.25
2022-09-23T22:14:26.269Z,98178.06
2022-09-23T22:16:30.155Z,98166.97
2022-09-23T22:18:32.825Z,98172.50
2022-09-23T22:20:35.767Z,98166.53
2022-09-23T22:22:38.342Z,98167.34
2022-09-23T22:24:42.034Z,98164.97
2022-09-23T22:26:45.720Z,98159.81
2022-09-23T22:29:06.984Z,98156.25
2022-09-23T22:31:28.306Z,98158.25
2022-09-23T22:33:31.348Z,98154.66
2022-09-23T22:35:33.920Z,98151.50
2022-09-23T22:37:37.223Z,98150.31
2022-09-23T22:39:40.375Z,98154.28
2022-09-23T22:41:43.585Z,98147.13
2022-09-23T22:43:46.469Z,98137.25
2022-09-23T22:45:51.285Z,98131.69
2022-09-23T22:47:53.886Z,98131.69
2022-09-23T22:49:56.435Z,98126.94
2022-09-23T22:51:59.773Z,98125.75
2022-09-23T22:54:02.404Z,98111.88
2022-09-23T22:56:05.003Z,98118.22
2022-09-23T22:58:30.743Z,98115.44
2022-09-23T23:00:30.729Z,98096.84
2022-09-23T23:02:33.370Z,98098.78
2022-09-23T23:04:36.786Z,98101.19
2022-09-23T23:06:39.832Z,98090.47
2022-09-23T23:08:42.514Z,98082.16
2022-09-23T23:10:45.198Z,98083.34
2022-09-23T23:12:49.307Z,98080.16
2022-09-23T23:14:51.922Z,98073.84
2022-09-23T23:16:55.364Z,98078.59
2022-09-23T23:18:57.904Z,98065.13
2022-09-23T23:21:15.040Z,98083.75
2022-09-23T23:23:17.788Z,98056.78
2022-09-23T23:25:20.331Z,98063.56
2022-09-23T23:27:23.057Z,98054.44
2022-09-23T23:29:25.871Z,98053.66
2022-09-23T23:31:29.526Z,98054.06
2022-09-23T23:33:32.652Z,98056.03
2022-09-23T23:35:35.397Z,98048.50
2022-09-23T23:37:37.961Z,98056.44
2022-09-23T23:39:40.570Z,98053.25
2022-09-23T23:41:43.236Z,98055.25
2022-09-23T23:43:47.226Z,98061.59
2022-09-23T23:45:53.682Z,98072.66
2022-09-23T23:47:56.334Z,98095.25
2022-09-23T23:49:58.866Z,98085.75
2022-09-23T23:52:01.742Z,98071.09
2022-09-23T23:54:04.654Z,98068.72
2022-09-23T23:56:10.607Z,98058.00
2022-09-23T23:58:14.618Z,98054.84
